Time;durP1;ratioP1;P1;durP2;ratioP2;P2;SDS_P1;SDS_P2;PMS_P1;PMS_P2;Temp;Humidity;BMP_temperature;BMP_pressure;BME280_temperature;BME280_humidity;BME280_pressure;Samples;Min_cycle;Max_cycle;Signal;HPM_P1;HPM_P2
2022/08/29 00:00:55;;;;;;;12.50;8.05;;;;;;;;;;6214528;23;20015;-76
2022/08/29 00:03:21;;;;;;;10.52;7.63;;;;;;;;;;6214194;23;20336;-76
2022/08/29 00:05:47;;;;;;;7.90;6.82;;;;;;;;;;6214336;23;20004;-76
2022/08/29 00:08:13;;;;;;;10.10;7.50;;;;;;;;;;6214490;23;20005;-75
2022/08/29 00:10:40;;;;;;;11.38;7.63;;;;;;;;;;6214046;23;20020;-76
2022/08/29 00:13:07;;;;;;;9.57;7.18;;;;;;;;;;6187858;23;20013;-76
2022/08/29 00:15:34;;;;;;;8.13;7.32;;;;;;;;;;6182321;23;20021;-76
2022/08/29 00:18:00;;;;;;;10.38;7.78;;;;;;;;;;6184309;23;20068;-76
2022/08/29 00:20:28;;;;;;;10.10;6.85;;;;;;;;;;6183941;23;20009;-76
2022/08/29 00:22:54;;;;;;;10.70;7.03;;;;;;;;;;6184439;23;20001;-76
2022/08/29 00:25:21;;;;;;;11.18;7.70;;;;;;;;;;6184257;23;20064;-76
2022/08/29 00:27:47;;;;;;;8.68;7.45;;;;;;;;;;6183971;23;20061;-76
2022/08/29 00:30:14;;;;;;;9.43;7.10;;;;;;;;;;6184323;23;20001;-75
2022/08/29 00:32:40;;;;;;;8.20;7.40;;;;;;;;;;6184073;23;20329;-76
2022/08/29 00:35:11;;;;;;;10.38;7.07;;;;;;;;;;6184243;23;20008;-76
2022/08/29 00:37:37;;;;;;;9.15;7.45;;;;;;;;;;6183838;23;20425;-76
2022/08/29 00:40:04;;;;;;;9.70;7.03;;;;;;;;;;6184180;23;20012;-75
2022/08/29 00:42:31;;;;;;;8.98;7.25;;;;;;;;;;6183618;23;20027;-76
2022/08/29 00:44:57;;;;;;;10.82;7.50;;;;;;;;;;6184273;23;20001;-76
2022/08/29 00:47:29;;;;;;;9.85;7.38;;;;;;;;;;6184215;23;20005;-76
2022/08/29 00:49:56;;;;;;;10.10;7.40;;;;;;;;;;6184314;23;20007;-76
2022/08/29 00:52:27;;;;;;;9.00;7.43;;;;;;;;;;6184243;23;20433;-76
2022/08/29 00:54:55;;;;;;;10.18;7.63;;;;;;;;;;6184449;23;20060;-75
2022/08/29 00:57:22;;;;;;;10.63;6.93;;;;;;;;;;6184002;23;20001;-76
2022/08/29 00:59:48;;;;;;;11.07;8.13;;;;;;;;;;6184450;23;20123;-76
2022/08/29 01:02:14;;;;;;;10.55;7.65;;;;;;;;;;6184274;23;20332;-76
2022/08/29 01:04:41;;;;;;;9.98;7.82;;;;;;;;;;6183903;23;20005;-76
2022/08/29 01:07:08;;;;;;;10.65;7.07;;;;;;;;;;6184304;23;20023;-76
2022/08/29 01:09:35;;;;;;;9.20;7.30;;;;;;;;;;6183845;23;20001;-76
2022/08/29 01:12:14;;;;;;;12.32;8.82;;;;;;;;;;6184308;23;20009;-76
2022/08/29 01:14:46;;;;;;;10.00;7.68;;;;;;;;;;6201453;23;20028;-76
2022/08/29 01:17:14;;;;;;;10.57;8.82;;;;;;;;;;6213870;23;20114;-77
2022/08/29 01:19:46;;;;;;;11.65;8.23;;;;;;;;;;6214039;23;20005;-75
2022/08/29 01:22:18;;;;;;;10.85;8.68;;;;;;;;;;6213914;23;19997;-76
2022/08/29 01:24:49;;;;;;;10.85;7.28;;;;;;;;;;6214405;23;20005;-76
2022/08/29 01:27:16;;;;;;;9.43;8.10;;;;;;;;;;6214133;23;20016;-76
2022/08/29 01:29:42;;;;;;;9.93;8.27;;;;;;;;;;6214339;23;20033;-76
2022/08/29 01:32:09;;;;;;;9.65;8.25;;;;;;;;;;6213719;23;20005;-76
2022/08/29 01:34:35;;;;;;;8.32;7.28;;;;;;;;;;6214281;23;20008;-76
2022/08/29 01:37:02;;;;;;;10.52;8.13;;;;;;;;;;6213978;23;20517;-75
2022/08/29 01:39:30;;;;;;;9.75;7.45;;;;;;;;;;6214027;23;20027;-76
2022/08/29 01:42:00;;;;;;;11.65;7.80;;;;;;;;;;6214096;23;20013;-76
2022/08/29 01:44:26;;;;;;;9.93;8.50;;;;;;;;;;6214088;23;20050;-76
2022/08/29 01:46:55;;;;;;;10.90;7.90;;;;;;;;;;6214098;23;20028;-76
2022/08/29 01:49:22;;;;;;;10.15;8.25;;;;;;;;;;6214411;23;20004;-76
2022/08/29 01:51:48;;;;;;;9.65;7.38;;;;;;;;;;6214054;23;20001;-75
2022/08/29 01:54:15;;;;;;;8.73;6.78;;;;;;;;;;6187430;23;20010;-75
2022/08/29 01:56:43;;;;;;;10.32;7.65;;;;;;;;;;6187469;23;20444;-76
2022/08/29 01:59:10;;;;;;;11.63;7.75;;;;;;;;;;6187335;23;20016;-76
2022/08/29 02:01:41;;;;;;;9.95;7.10;;;;;;;;;;6213880;23;20014;-77
2022/08/29 02:04:07;;;;;;;11.38;7.32;;;;;;;;;;6213736;23;20031;-76
2022/08/29 02:06:34;;;;;;;11.52;8.00;;;;;;;;;;6214179;23;20011;-76
2022/08/29 02:09:00;;;;;;;9.23;7.60;;;;;;;;;;6213693;23;20062;-76
2022/08/29 02:11:26;;;;;;;8.63;7.38;;;;;;;;;;6216011;23;20448;-76
2022/08/29 02:13:54;;;;;;;8.73;7.85;;;;;;;;;;6216064;23;20024;-76
2022/08/29 02:16:22;;;;;;;12.55;8.50;;;;;;;;;;6215790;23;20090;-76
2022/08/29 02:18:48;;;;;;;10.48;7.22;;;;;;;;;;6216184;23;20092;-76
2022/08/29 02:21:16;;;;;;;11.63;8.48;;;;;;;;;;6215503;23;20009;-76
2022/08/29 02:23:43;;;;;;;8.55;7.68;;;;;;;;;;6215768;23;20051;-76
2022/08/29 02:26:09;;;;;;;10.15;7.50;;;;;;;;;;6215523;23;20068;-76
2022/08/29 02:28:36;;;;;;;10.38;7.45;;;;;;;;;;6215841;23;20022;-76
2022/08/29 02:31:03;;;;;;;13.05;7.78;;;;;;;;;;6215532;23;20001;-76
2022/08/29 02:33:30;;;;;;;9.52;7.30;;;;;;;;;;6215732;23;20001;-75
2022/08/29 02:35:56;;;;;;;9.68;7.07;;;;;;;;;;6216004;23;20012;-76
2022/08/29 02:38:22;;;;;;;10.43;7.80;;;;;;;;;;6215659;23;20001;-76
2022/08/29 02:40:49;;;;;;;9.77;7.13;;;;;;;;;;6188904;23;20341;-76
2022/08/29 02:43:17;;;;;;;11.52;7.70;;;;;;;;;;6215226;23;20000;-76
2022/08/29 02:45:43;;;;;;;11.52;8.40;;;;;;;;;;6215134;23;20001;-76
2022/08/29 02:48:13;;;;;;;15.90;13.25;;;;;;;;;;6214963;23;20001;-76
2022/08/29 02:50:40;;;;;;;13.82;9.90;;;;;;;;;;6215389;23;20009;-76
2022/08/29 02:53:06;;;;;;;10.68;7.53;;;;;;;;;;6214943;23;20006;-75
2022/08/29 02:55:33;;;;;;;13.13;9.55;;;;;;;;;;6215505;23;20076;-76
2022/08/29 02:57:59;;;;;;;16.83;11.60;;;;;;;;;;6215131;23;20075;-76
2022/08/29 03:00:26;;;;;;;11.07;8.40;;;;;;;;;;6215306;23;20008;-76
2022/08/29 03:02:54;;;;;;;11.45;7.88;;;;;;;;;;6215548;23;20368;-76
2022/08/29 03:05:21;;;;;;;10.52;7.28;;;;;;;;;;6215680;23;20001;-76
2022/08/29 03:07:47;;;;;;;9.32;7.32;;;;;;;;;;6214833;23;20009;-76
2022/08/29 03:10:14;;;;;;;10.70;7.22;;;;;;;;;;6215035;23;20483;-76
2022/08/29 03:12:40;;;;;;;11.40;8.35;;;;;;;;;;6215463;23;20011;-76
2022/08/29 03:15:07;;;;;;;13.48;8.55;;;;;;;;;;6214844;23;20028;-76
2022/08/29 03:17:34;;;;;;;10.63;8.20;;;;;;;;;;6215452;23;20004;-75
2022/08/29 03:20:00;;;;;;;10.00;8.00;;;;;;;;;;6214994;23;20445;-76
2022/08/29 03:22:26;;;;;;;9.63;8.05;;;;;;;;;;6214884;23;20004;-76
2022/08/29 03:24:53;;;;;;;11.73;7.47;;;;;;;;;;6188571;23;20004;-76
2022/08/29 03:27:19;;;;;;;9.93;7.15;;;;;;;;;;6214474;23;20004;-75
2022/08/29 03:29:46;;;;;;;9.90;7.05;;;;;;;;;;6215042;23;20344;-75
2022/08/29 03:32:12;;;;;;;8.68;7.07;;;;;;;;;;6214898;23;20008;-76
2022/08/29 03:34:38;;;;;;;10.88;7.75;;;;;;;;;;6215206;23;20005;-75
2022/08/29 03:37:04;;;;;;;8.38;7.15;;;;;;;;;;6215153;23;20004;-76
2022/08/29 03:39:30;;;;;;;11.30;7.50;;;;;;;;;;6214918;23;20005;-76
2022/08/29 03:41:57;;;;;;;11.00;7.88;;;;;;;;;;6215184;23;20013;-75
2022/08/29 03:44:23;;;;;;;11.75;8.38;;;;;;;;;;6214755;23;20309;-76
2022/08/29 03:46:49;;;;;;;12.90;9.13;;;;;;;;;;6215072;23;20009;-76
2022/08/29 03:49:15;;;;;;;12.35;8.30;;;;;;;;;;6214812;23;20005;-76
2022/08/29 03:51:42;;;;;;;13.20;8.30;;;;;;;;;;6215086;23;20003;-76
2022/08/29 03:54:08;;;;;;;12.63;8.68;;;;;;;;;;6214655;23;20005;-76
2022/08/29 03:56:35;;;;;;;11.88;7.55;;;;;;;;;;6215019;23;20007;-76
2022/08/29 03:59:01;;;;;;;13.00;8.02;;;;;;;;;;6214956;23;20026;-76
2022/08/29 04:01:28;;;;;;;11.00;8.23;;;;;;;;;;6214341;23;20009;-76
2022/08/29 04:03:55;;;;;;;9.93;7.95;;;;;;;;;;6214843;23;20004;-76
2022/08/29 04:06:22;;;;;;;10.75;7.82;;;;;;;;;;6214684;23;20005;-76
2022/08/29 04:08:49;;;;;;;15.40;11.27;;;;;;;;;;6214988;23;20011;-76
2022/08/29 04:11:16;;;;;;;12.98;11.05;;;;;;;;;;6214650;23;19997;-76
2022/08/29 04:13:42;;;;;;;10.35;7.95;;;;;;;;;;6214227;23;20005;-76
2022/08/29 04:16:12;;;;;;;9.35;7.78;;;;;;;;;;6214398;23;20011;-76
2022/08/29 04:18:39;;;;;;;9.85;8.30;;;;;;;;;;6214596;23;20028;-75
2022/08/29 04:21:05;;;;;;;11.80;7.82;;;;;;;;;;6215028;23;20009;-76
2022/08/29 04:23:32;;;;;;;12.93;8.48;;;;;;;;;;6214353;23;20024;-76
2022/08/29 04:25:58;;;;;;;10.13;7.82;;;;;;;;;;6214806;23;20000;-76
2022/08/29 04:28:24;;;;;;;10.60;8.07;;;;;;;;;;6214299;23;20005;-75
2022/08/29 04:30:51;;;;;;;8.50;7.60;;;;;;;;;;6214569;23;20336;-76
2022/08/29 04:33:18;;;;;;;9.70;8.13;;;;;;;;;;6213987;23;20012;-76
2022/08/29 04:35:44;;;;;;;12.32;8.02;;;;;;;;;;6214656;23;20027;-76
2022/08/29 04:38:10;;;;;;;13.68;8.60;;;;;;;;;;6213950;23;20059;-76
2022/08/29 04:40:39;;;;;;;10.50;7.88;;;;;;;;;;6214291;23;20019;-75
2022/08/29 04:43:05;;;;;;;10.68;8.10;;;;;;;;;;6214693;23;20001;-75
2022/08/29 04:45:32;;;;;;;9.38;7.85;;;;;;;;;;6214360;23;20005;-75
2022/08/29 04:47:58;;;;;;;11.63;8.15;;;;;;;;;;6214418;23;20011;-74
2022/08/29 04:50:25;;;;;;;10.48;7.57;;;;;;;;;;6187594;23;20008;-75
2022/08/29 04:52:52;;;;;;;9.00;7.50;;;;;;;;;;6214309;23;20004;-75
2022/08/29 04:55:19;;;;;;;10.60;7.22;;;;;;;;;;6214515;23;20008;-75
2022/08/29 04:57:45;;;;;;;10.57;7.65;;;;;;;;;;6214200;23;20005;-75
2022/08/29 05:00:14;;;;;;;10.23;7.82;;;;;;;;;;6214210;23;20102;-75
2022/08/29 05:02:41;;;;;;;10.40;8.13;;;;;;;;;;6213983;23;20482;-75
2022/08/29 05:05:07;;;;;;;12.18;7.72;;;;;;;;;;6214293;23;20005;-75
2022/08/29 05:07:34;;;;;;;9.75;8.23;;;;;;;;;;6213840;23;20009;-75
2022/08/29 05:10:01;;;;;;;9.30;7.18;;;;;;;;;;6214426;23;20004;-75
2022/08/29 05:12:29;;;;;;;12.38;7.75;;;;;;;;;;6214071;23;20035;-75
2022/08/29 05:14:55;;;;;;;9.38;7.22;;;;;;;;;;6214080;23;20027;-75
2022/08/29 05:17:22;;;;;;;10.10;6.95;;;;;;;;;;6213982;23;20008;-75
2022/08/29 05:19:48;;;;;;;15.63;7.85;;;;;;;;;;6213800;23;20051;-75
2022/08/29 05:22:16;;;;;;;12.40;7.10;;;;;;;;;;6214145;23;20039;-75
2022/08/29 05:24:42;;;;;;;9.30;6.93;;;;;;;;;;6213489;23;20005;-76
2022/08/29 05:27:13;;;;;;;10.98;7.13;;;;;;;;;;6214439;23;20008;-74
2022/08/29 05:29:40;;;;;;;13.15;7.05;;;;;;;;;;6212834;23;20000;-74
2022/08/29 05:32:07;;;;;;;11.98;7.10;;;;;;;;;;6209265;23;20013;-76
2022/08/29 05:34:33;;;;;;;11.63;8.15;;;;;;;;;;6210804;23;20005;-75
2022/08/29 05:37:00;;;;;;;11.68;7.65;;;;;;;;;;6211157;23;20086;-75
2022/08/29 05:39:26;;;;;;;9.98;6.95;;;;;;;;;;6212805;23;20511;-75
2022/08/29 05:41:56;;;;;;;11.20;7.15;;;;;;;;;;6212813;23;20013;-75
2022/08/29 05:44:22;;;;;;;9.98;7.57;;;;;;;;;;6214939;23;20437;-75
2022/08/29 05:46:48;;;;;;;12.48;7.53;;;;;;;;;;6213721;23;20029;-76
2022/08/29 05:49:15;;;;;;;15.50;9.48;;;;;;;;;;6215814;23;20005;-77
2022/08/29 05:51:41;;;;;;;12.00;8.40;;;;;;;;;;6215066;23;20015;-77
2022/08/29 05:54:08;;;;;;;14.25;8.48;;;;;;;;;;6216482;23;20444;-78
2022/08/29 05:56:34;;;;;;;12.18;9.35;;;;;;;;;;6215584;23;20026;-77
2022/08/29 05:59:00;;;;;;;13.35;8.68;;;;;;;;;;6215784;23;20004;-76
2022/08/29 06:01:29;;;;;;;12.18;8.60;;;;;;;;;;6215735;23;20012;-78
2022/08/29 06:03:57;;;;;;;16.55;8.52;;;;;;;;;;6214228;23;20380;-77
2022/08/29 06:06:24;;;;;;;10.68;8.48;;;;;;;;;;6211698;23;20024;-78
2022/08/29 06:08:51;;;;;;;11.55;8.63;;;;;;;;;;6210842;23;20100;-77
2022/08/29 06:11:19;;;;;;;13.25;8.60;;;;;;;;;;6212550;23;20028;-79
2022/08/29 06:13:46;;;;;;;12.00;9.27;;;;;;;;;;6211819;23;20020;-80
2022/08/29 06:16:13;;;;;;;11.35;8.35;;;;;;;;;;6214292;23;20008;-80
2022/08/29 06:18:39;;;;;;;14.35;11.95;;;;;;;;;;6213807;23;20391;-83
2022/08/29 06:21:06;;;;;;;13.65;9.73;;;;;;;;;;6213612;23;20011;-80
2022/08/29 06:23:32;;;;;;;14.95;11.45;;;;;;;;;;6214132;23;20011;-75
2022/08/29 06:25:58;;;;;;;13.80;9.55;;;;;;;;;;6213815;23;20388;-84
2022/08/29 06:28:29;;;;;;;18.23;10.15;;;;;;;;;;6213009;23;20004;-80
2022/08/29 06:30:55;;;;;;;10.13;7.60;;;;;;;;;;6213884;23;20005;-79
2022/08/29 06:33:21;;;;;;;11.77;8.18;;;;;;;;;;6214278;23;20429;-77
2022/08/29 06:35:47;;;;;;;15.32;8.90;;;;;;;;;;6214228;23;20009;-80
2022/08/29 06:38:13;;;;;;;11.55;8.10;;;;;;;;;;6214006;23;20005;-81
2022/08/29 06:40:39;;;;;;;12.52;8.15;;;;;;;;;;6214219;23;20016;-77
2022/08/29 06:43:05;;;;;;;10.82;7.35;;;;;;;;;;6187825;23;20091;-77
2022/08/29 06:45:31;;;;;;;9.48;7.55;;;;;;;;;;6214436;23;20005;-76
2022/08/29 06:47:57;;;;;;;13.40;8.80;;;;;;;;;;6213151;23;20027;-77
2022/08/29 06:50:24;;;;;;;8.75;6.50;;;;;;;;;;6214026;23;20055;-77
2022/08/29 06:52:50;;;;;;;11.30;7.97;;;;;;;;;;6213846;23;20420;-76
2022/08/29 06:55:16;;;;;;;10.13;6.88;;;;;;;;;;6213080;23;20013;-76
2022/08/29 06:57:44;;;;;;;9.45;6.93;;;;;;;;;;6212300;23;20004;-76
2022/08/29 07:00:12;;;;;;;10.65;6.32;;;;;;;;;;6210567;23;20088;-77
2022/08/29 07:02:38;;;;;;;15.23;8.38;;;;;;;;;;6211563;23;20380;-76
2022/08/29 07:05:05;;;;;;;10.23;6.97;;;;;;;;;;6213682;23;20306;-77
2022/08/29 07:07:31;;;;;;;9.15;7.22;;;;;;;;;;6213726;23;20012;-76
2022/08/29 07:09:57;;;;;;;11.25;6.55;;;;;;;;;;6214307;23;20004;-77
2022/08/29 07:12:23;;;;;;;14.65;7.20;;;;;;;;;;6213464;23;20012;-76
2022/08/29 07:14:50;;;;;;;15.82;8.45;;;;;;;;;;6212478;23;20142;-77
2022/08/29 07:17:16;;;;;;;9.65;7.70;;;;;;;;;;6213673;23;20079;-77
2022/08/29 07:19:42;;;;;;;10.05;7.90;;;;;;;;;;6212971;23;20043;-76
2022/08/29 07:22:08;;;;;;;8.88;6.78;;;;;;;;;;6213309;23;20444;-75
2022/08/29 07:24:34;;;;;;;8.45;6.40;;;;;;;;;;6213788;23;20524;-75
2022/08/29 07:27:00;;;;;;;8.93;5.80;;;;;;;;;;6214115;23;20008;-74
2022/08/29 07:29:26;;;;;;;12.20;6.45;;;;;;;;;;6214464;23;20008;-74
2022/08/29 07:31:53;;;;;;;11.98;6.72;;;;;;;;;;6213891;23;20063;-74
2022/08/29 07:34:19;;;;;;;11.20;6.68;;;;;;;;;;6214017;23;20001;-74
2022/08/29 07:36:46;;;;;;;13.10;9.25;;;;;;;;;;6213782;23;20001;-75
2022/08/29 07:39:15;;;;;;;11.32;6.28;;;;;;;;;;6214038;23;20055;-74
2022/08/29 07:41:41;;;;;;;10.98;6.97;;;;;;;;;;6212406;23;20040;-73
2022/08/29 07:44:08;;;;;;;10.88;6.60;;;;;;;;;;6214133;23;20043;-73
2022/08/29 07:46:34;;;;;;;7.20;6.45;;;;;;;;;;6214238;23;20508;-74
2022/08/29 07:49:00;;;;;;;12.63;7.18;;;;;;;;;;6212920;23;20008;-75
2022/08/29 07:51:27;;;;;;;9.18;6.00;;;;;;;;;;6212054;23;20066;-74
2022/08/29 07:53:53;;;;;;;11.40;6.65;;;;;;;;;;6213398;23;20000;-74
2022/08/29 07:56:30;;;;;;;10.43;7.05;;;;;;;;;;6213291;23;20310;-74
2022/08/29 07:58:56;;;;;;;8.70;6.55;;;;;;;;;;6213854;23;20012;-75
2022/08/29 08:01:23;;;;;;;9.57;7.30;;;;;;;;;;6213311;23;20004;-74
2022/08/29 08:03:50;;;;;;;7.85;6.55;;;;;;;;;;6213696;23;20004;-75
2022/08/29 08:06:16;;;;;;;12.80;6.55;;;;;;;;;;6213678;23;20074;-74
2022/08/29 08:08:42;;;;;;;8.52;6.18;;;;;;;;;;6213492;23;20005;-74
2022/08/29 08:11:09;;;;;;;10.50;6.40;;;;;;;;;;6212930;23;20463;-74
2022/08/29 08:13:36;;;;;;;7.78;6.38;;;;;;;;;;6213770;23;20013;-75
2022/08/29 08:16:06;;;;;;;9.02;7.18;;;;;;;;;;6213061;23;20004;-74
2022/08/29 08:18:34;;;;;;;10.20;7.05;;;;;;;;;;6213191;23;20328;-74
2022/08/29 08:21:00;;;;;;;11.07;6.72;;;;;;;;;;6211667;23;20040;-76
2022/08/29 08:23:26;;;;;;;8.55;6.53;;;;;;;;;;6213561;23;20538;-76
2022/08/29 08:25:52;;;;;;;11.38;7.75;;;;;;;;;;6185087;23;20467;-77
2022/08/29 08:28:18;;;;;;;10.57;6.97;;;;;;;;;;6210476;23;20466;-77
2022/08/29 08:30:44;;;;;;;9.93;6.95;;;;;;;;;;6212448;23;20088;-76
2022/08/29 08:33:11;;;;;;;8.30;6.65;;;;;;;;;;6212853;23;20087;-76
2022/08/29 08:35:37;;;;;;;8.93;6.40;;;;;;;;;;6212873;23;20005;-76
2022/08/29 08:38:05;;;;;;;9.88;6.38;;;;;;;;;;6210979;23;20005;-76
2022/08/29 08:40:31;;;;;;;8.75;6.78;;;;;;;;;;6212210;23;20503;-76
2022/08/29 08:43:00;;;;;;;9.15;7.07;;;;;;;;;;6212730;23;20028;-76
2022/08/29 08:45:45;;;;;;;16.63;8.00;;;;;;;;;;6213280;23;20088;-78
2022/08/29 08:48:11;;;;;;;13.82;6.70;;;;;;;;;;6213367;23;20004;-77
2022/08/29 08:50:46;;;;;;;10.73;6.90;;;;;;;;;;6212965;23;20512;-77
2022/08/29 08:53:15;;;;;;;8.10;6.93;;;;;;;;;;6213052;23;20032;-77
2022/08/29 08:56:00;;;;;;;10.60;6.93;;;;;;;;;;6213321;23;20328;-76
2022/08/29 08:58:35;;;;;;;9.73;6.90;;;;;;;;;;6213417;23;20004;-74
2022/08/29 09:01:08;;;;;;;10.43;6.70;;;;;;;;;;6212584;23;20013;-76
2022/08/29 09:03:53;;;;;;;11.27;7.00;;;;;;;;;;6212734;23;20000;-77
2022/08/29 09:06:30;;;;;;;9.88;7.05;;;;;;;;;;6212609;23;20004;-76
2022/08/29 09:09:15;;;;;;;9.38;6.82;;;;;;;;;;6212985;23;20016;-76
2022/08/29 09:12:00;;;;;;;10.15;6.75;;;;;;;;;;6210298;23;20011;-76
2022/08/29 09:14:34;;;;;;;11.93;6.93;;;;;;;;;;6185790;23;20392;-76
2022/08/29 09:17:01;;;;;;;9.77;7.38;;;;;;;;;;6211891;23;20501;-76
2022/08/29 09:19:28;;;;;;;11.90;6.63;;;;;;;;;;6210833;23;20004;-76
2022/08/29 09:21:58;;;;;;;8.93;6.55;;;;;;;;;;6211946;23;20015;-76
2022/08/29 09:24:39;;;;;;;9.93;7.13;;;;;;;;;;6212281;23;20090;-77
2022/08/29 09:27:07;;;;;;;9.73;7.80;;;;;;;;;;6183505;23;20005;-76
2022/08/29 09:29:36;;;;;;;12.65;7.25;;;;;;;;;;6212654;23;20003;-76
2022/08/29 09:32:21;;;;;;;8.60;6.95;;;;;;;;;;6212085;23;20063;-77
2022/08/29 09:34:47;;;;;;;11.27;7.38;;;;;;;;;;6211170;23;20005;-79
2022/08/29 09:37:22;;;;;;;9.23;7.35;;;;;;;;;;6211926;23;20008;-77
2022/08/29 09:40:09;;;;;;;7.68;6.25;;;;;;;;;;6209928;23;20008;-79
2022/08/29 09:42:36;;;;;;;9.65;7.35;;;;;;;;;;6211618;23;20012;-77
2022/08/29 09:45:23;;;;;;;9.40;6.60;;;;;;;;;;6212561;23;20059;-76
2022/08/29 09:47:50;;;;;;;12.15;7.47;;;;;;;;;;6211913;23;20009;-76
2022/08/29 09:50:25;;;;;;;10.32;6.40;;;;;;;;;;6211522;23;20004;-77
2022/08/29 09:53:10;;;;;;;10.98;6.95;;;;;;;;;;6211175;23;20024;-76
2022/08/29 09:55:41;;;;;;;11.40;7.88;;;;;;;;;;6211897;23;20036;-76
2022/08/29 09:58:10;;;;;;;10.05;7.30;;;;;;;;;;6212378;23;20012;-77
2022/08/29 10:00:38;;;;;;;8.48;6.85;;;;;;;;;;6210935;23;20456;-76
2022/08/29 10:03:06;;;;;;;10.50;7.25;;;;;;;;;;6211373;23;20000;-76
2022/08/29 10:05:43;;;;;;;9.57;7.15;;;;;;;;;;6182983;23;20360;-77
2022/08/29 10:08:24;;;;;;;8.65;6.75;;;;;;;;;;6211915;23;20000;-79
2022/08/29 10:10:55;;;;;;;10.40;6.68;;;;;;;;;;6212020;23;20000;-79
2022/08/29 10:13:32;;;;;;;9.13;6.90;;;;;;;;;;6210234;23;20019;-77
2022/08/29 10:15:58;;;;;;;12.00;7.20;;;;;;;;;;6212536;23;20009;-76
2022/08/29 10:18:43;;;;;;;8.95;7.45;;;;;;;;;;6212339;23;20011;-77
2022/08/29 10:21:15;;;;;;;11.38;6.60;;;;;;;;;;6210281;23;20848;-76
2022/08/29 10:24:00;;;;;;;9.27;7.18;;;;;;;;;;6211487;23;20012;-77
2022/08/29 10:26:34;;;;;;;10.70;7.05;;;;;;;;;;6210630;23;20398;-76
2022/08/29 10:29:08;;;;;;;8.85;6.65;;;;;;;;;;6210936;23;20320;-76
2022/08/29 10:31:57;;;;;;;13.38;9.95;;;;;;;;;;6212054;23;20084;-76
2022/08/29 10:34:42;;;;;;;15.10;7.18;;;;;;;;;;6198625;23;20013;-77
2022/08/29 10:37:17;;;;;;;9.65;7.15;;;;;;;;;;6214787;23;20066;-76
2022/08/29 10:40:01;;;;;;;9.68;6.32;;;;;;;;;;6212241;23;20004;-77
2022/08/29 10:42:29;;;;;;;12.27;6.68;;;;;;;;;;6212941;23;20044;-76
2022/08/29 10:44:55;;;;;;;9.57;6.45;;;;;;;;;;6213436;23;20079;-76
2022/08/29 10:47:25;;;;;;;10.30;6.50;;;;;;;;;;6213967;23;20008;-76
2022/08/29 10:49:54;;;;;;;11.82;6.57;;;;;;;;;;6214311;23;20008;-76
2022/08/29 10:52:20;;;;;;;11.15;7.20;;;;;;;;;;6213309;23;20425;-76
2022/08/29 10:54:57;;;;;;;10.23;8.02;;;;;;;;;;6213442;23;20325;-76
2022/08/29 10:57:29;;;;;;;9.35;5.72;;;;;;;;;;6212892;23;20000;-77
2022/08/29 11:00:01;;;;;;;8.63;5.82;;;;;;;;;;6211812;23;19996;-75
2022/08/29 11:02:27;;;;;;;9.35;6.47;;;;;;;;;;6214383;23;20011;-76
2022/08/29 11:04:55;;;;;;;10.07;5.60;;;;;;;;;;6213080;23;20032;-74
2022/08/29 11:07:25;;;;;;;8.30;6.03;;;;;;;;;;6186413;23;20011;-74
2022/08/29 11:09:56;;;;;;;12.88;7.13;;;;;;;;;;6213290;23;20036;-75
2022/08/29 11:12:43;;;;;;;9.23;6.07;;;;;;;;;;6212841;23;20052;-74
2022/08/29 11:15:25;;;;;;;8.23;6.00;;;;;;;;;;6212881;23;20016;-75
2022/08/29 11:17:58;;;;;;;10.82;7.15;;;;;;;;;;6211921;23;20000;-75
2022/08/29 11:20:30;;;;;;;11.63;7.70;;;;;;;;;;6213771;23;20317;-76
2022/08/29 11:22:56;;;;;;;13.82;7.07;;;;;;;;;;6213011;23;20009;-76
2022/08/29 11:25:22;;;;;;;8.13;6.22;;;;;;;;;;6212532;23;20134;-76
2022/08/29 11:28:05;;;;;;;9.93;6.13;;;;;;;;;;6212602;23;20010;-76
2022/08/29 11:30:41;;;;;;;11.30;6.60;;;;;;;;;;6212818;23;20005;-76
2022/08/29 11:33:09;;;;;;;12.07;7.18;;;;;;;;;;6212023;23;20475;-76
2022/08/29 11:35:49;;;;;;;8.85;6.28;;;;;;;;;;6211555;23;20024;-77
2022/08/29 11:38:23;;;;;;;7.28;5.53;;;;;;;;;;6211861;23;20032;-76
2022/08/29 11:40:58;;;;;;;10.38;6.60;;;;;;;;;;6210806;23;20015;-76
2022/08/29 11:43:26;;;;;;;10.88;6.63;;;;;;;;;;6213768;23;20005;-76
2022/08/29 11:46:11;;;;;;;8.52;6.10;;;;;;;;;;6212614;23;20063;-78
2022/08/29 11:48:47;;;;;;;10.13;6.70;;;;;;;;;;6213489;23;20456;-76
2022/08/29 11:51:29;;;;;;;13.52;6.45;;;;;;;;;;6213312;23;20001;-77
2022/08/29 11:53:55;;;;;;;9.43;6.35;;;;;;;;;;6213150;23;20035;-77
2022/08/29 11:56:26;;;;;;;11.20;7.07;;;;;;;;;;6212667;23;20008;-77
2022/08/29 11:58:57;;;;;;;16.15;14.45;;;;;;;;;;6183839;23;20004;-77
2022/08/29 12:01:23;;;;;;;8.30;7.50;;;;;;;;;;6214117;23;20015;-75
2022/08/29 12:03:50;;;;;;;11.15;7.22;;;;;;;;;;6214847;23;20005;-75
2022/08/29 12:06:20;;;;;;;10.27;6.18;;;;;;;;;;6212585;23;20012;-75
2022/08/29 12:09:08;;;;;;;11.98;6.70;;;;;;;;;;6213517;23;20063;-76
2022/08/29 12:11:52;;;;;;;26.60;8.00;;;;;;;;;;6212806;23;20008;-76
2022/08/29 12:14:29;;;;;;;10.68;5.72;;;;;;;;;;6181300;23;20025;-76
2022/08/29 12:16:55;;;;;;;10.40;5.97;;;;;;;;;;6184436;23;20008;-75
2022/08/29 12:19:41;;;;;;;14.60;6.20;;;;;;;;;;6183647;23;20009;-77
2022/08/29 12:22:11;;;;;;;11.18;6.72;;;;;;;;;;6181705;23;20017;-77
2022/08/29 12:24:42;;;;;;;12.35;6.32;;;;;;;;;;6183887;23;20008;-76
2022/08/29 12:27:27;;;;;;;11.50;7.55;;;;;;;;;;6184242;23;20091;-77
2022/08/29 12:29:53;;;;;;;9.65;6.35;;;;;;;;;;6184308;23;20028;-76
2022/08/29 12:32:37;;;;;;;8.00;6.35;;;;;;;;;;6184545;23;20024;-76
2022/08/29 12:35:06;;;;;;;10.32;5.93;;;;;;;;;;6184397;23;20084;-76
2022/08/29 12:37:59;;;;;;;10.43;6.47;;;;;;;;;;6184607;23;20440;-76
2022/08/29 12:40:44;;;;;;;9.18;5.65;;;;;;;;;;6184120;23;20020;-75
2022/08/29 12:43:19;;;;;;;9.27;5.72;;;;;;;;;;6182009;23;20036;-77
2022/08/29 12:45:51;;;;;;;8.02;5.40;;;;;;;;;;6181290;23;20005;-78
2022/08/29 12:48:22;;;;;;;11.32;5.85;;;;;;;;;;6181553;23;20499;-76
2022/08/29 12:50:49;;;;;;;9.02;5.90;;;;;;;;;;6183447;23;20001;-76
2022/08/29 12:53:15;;;;;;;10.85;5.90;;;;;;;;;;6184273;23;20025;-76
2022/08/29 12:55:43;;;;;;;12.45;5.90;;;;;;;;;;6183712;23;20004;-76
2022/08/29 12:58:10;;;;;;;10.30;5.55;;;;;;;;;;6182095;23;20077;-76
2022/08/29 13:00:36;;;;;;;13.15;5.22;;;;;;;;;;6183957;23;20009;-77
2022/08/29 13:03:17;;;;;;;12.90;5.97;;;;;;;;;;6184156;23;20013;-80
2022/08/29 13:05:43;;;;;;;9.23;4.97;;;;;;;;;;6183519;23;20005;-77
2022/08/29 13:08:11;;;;;;;11.65;4.88;;;;;;;;;;6184204;23;20001;-77
2022/08/29 13:10:39;;;;;;;8.57;5.07;;;;;;;;;;6183508;23;20005;-81
2022/08/29 13:13:12;;;;;;;8.30;4.80;;;;;;;;;;6183705;23;20009;-81
2022/08/29 13:15:38;;;;;;;8.68;4.78;;;;;;;;;;6212547;23;20124;-78
2022/08/29 13:18:05;;;;;;;5.82;4.32;;;;;;;;;;6213796;23;20065;-78
2022/08/29 13:20:49;;;;;;;7.03;4.80;;;;;;;;;;6187340;23;20425;-80
2022/08/29 13:23:16;;;;;;;7.53;3.95;;;;;;;;;;6214191;23;20032;-78
2022/08/29 13:26:00;;;;;;;8.05;4.50;;;;;;;;;;6214813;23;20011;-81
2022/08/29 13:28:45;;;;;;;4.75;4.20;;;;;;;;;;6214412;23;20013;-81
2022/08/29 13:31:11;;;;;;;5.43;4.07;;;;;;;;;;6214395;23;20106;-80
2022/08/29 13:33:38;;;;;;;6.40;4.97;;;;;;;;;;6214611;23;20011;-79
2022/08/29 13:36:23;;;;;;;4.43;4.03;;;;;;;;;;6213608;23;20333;-78
2022/08/29 13:39:09;;;;;;;16.45;5.28;;;;;;;;;;6213785;23;20428;-79
2022/08/29 13:41:36;;;;;;;16.63;5.93;;;;;;;;;;6213753;23;20015;-79
2022/08/29 13:44:02;;;;;;;15.55;6.72;;;;;;;;;;6214536;23;20000;-77
2022/08/29 13:49:32;;;;;;;8.63;6.70;;;;;;;;;;6213894;23;20051;-79
2022/08/29 13:51:58;;;;;;;10.40;6.93;;;;;;;;;;6213848;23;20004;-79
2022/08/29 13:54:25;;;;;;;10.27;5.32;;;;;;;;;;6214238;23;20004;-78
2022/08/29 13:56:54;;;;;;;7.80;4.95;;;;;;;;;;6214390;23;20080;-79
2022/08/29 13:59:24;;;;;;;9.77;5.45;;;;;;;;;;6213763;23;20863;-76
2022/08/29 14:01:50;;;;;;;10.70;5.22;;;;;;;;;;6209722;23;20017;-80
2022/08/29 14:04:16;;;;;;;11.27;5.97;;;;;;;;;;6214081;23;20084;-78
2022/08/29 14:06:43;;;;;;;9.60;5.65;;;;;;;;;;6215811;23;19996;-77
2022/08/29 14:09:10;;;;;;;7.78;5.10;;;;;;;;;;6215935;23;20008;-77
2022/08/29 14:11:36;;;;;;;12.93;7.70;;;;;;;;;;6216487;23;20004;-76
2022/08/29 14:14:02;;;;;;;13.98;7.82;;;;;;;;;;6216593;23;20012;-79
2022/08/29 14:16:28;;;;;;;13.02;9.43;;;;;;;;;;6190036;23;20072;-79
2022/08/29 14:18:54;;;;;;;19.08;10.00;;;;;;;;;;6215878;23;20004;-77
2022/08/29 14:21:20;;;;;;;25.40;9.82;;;;;;;;;;6216151;23;20013;-76
2022/08/29 14:23:47;;;;;;;11.40;8.90;;;;;;;;;;6215504;23;20005;-78
2022/08/29 14:26:13;;;;;;;17.13;9.63;;;;;;;;;;6216050;23;20005;-77
2022/08/29 14:28:39;;;;;;;14.48;9.05;;;;;;;;;;6215290;23;20079;-78
2022/08/29 14:31:05;;;;;;;15.20;9.52;;;;;;;;;;6216128;23;20000;-77
2022/08/29 14:33:32;;;;;;;17.73;10.15;;;;;;;;;;6216090;23;20007;-77
2022/08/29 14:35:58;;;;;;;18.42;11.30;;;;;;;;;;6215738;23;20008;-77
2022/08/29 14:38:25;;;;;;;15.00;12.15;;;;;;;;;;6216479;23;20051;-78
2022/08/29 14:40:51;;;;;;;21.58;13.10;;;;;;;;;;6188572;23;20490;-77
2022/08/29 14:43:17;;;;;;;20.00;13.95;;;;;;;;;;6216040;23;20012;-76
2022/08/29 14:45:47;;;;;;;16.98;13.50;;;;;;;;;;6216279;23;20337;-77
2022/08/29 14:48:13;;;;;;;11.77;10.23;;;;;;;;;;6215912;23;20100;-77